Bessingby, United Kingdom
Current Conditions -  °F | °C
As of 1:50 PM on Thursday 30 Oct 2014 (Local Time) from EGXV Reporting Station
Haze Haze  
Wind Chill: 61°   Ceiling: 3700
Heat Index: 61°   Visibility: 4mi
Dew Point: 61°   Wind: 9mph
Humidity: 100%   Direction: 200°SSW
Pressure: 29.97"   Gusts: NA
Location:  54.09°N, 0.21°W
Report Text: EGXV 301350Z AUTO 20008KT 7000 BR BKN037/// 16/16 Q1015
Loading
Personal Weather Stations






























Interactive Weather Map
Tropical Storm Tracking
New forecast layout! Learn more

10-Day Weather Forecast

Advertisements
Track Severe Weather on mobile